Time;durP1;ratioP1;P1;durP2;ratioP2;P2;SDS_P1;SDS_P2;PMS_P1;PMS_P2;Temp;Humidity;BMP_temperature;BMP_pressure;BME280_temperature;BME280_humidity;BME280_pressure;Samples;Min_cycle;Max_cycle;Signal;HPM_P1;HPM_P2
2023/06/09 02:08:34;;;;;;;3.80;1.45;;;;;;;;;;5054071;27;20747;-66
2023/06/09 02:11:00;;;;;;;7.68;1.83;;;;;;;;;;5006859;28;20050;-66
2023/06/09 02:13:27;;;;;;;10.45;2.08;;;;;;;;;;5011540;28;20120;-67
2023/06/09 02:15:53;;;;;;;8.15;1.85;;;;;;;;;;5004291;28;20073;-68
2023/06/09 02:18:21;;;;;;;8.70;2.00;;;;;;;;;;5019132;28;20115;-66
2023/06/09 02:20:47;;;;;;;9.57;2.22;;;;;;;;;;5028047;28;20060;-67
2023/06/09 02:23:14;;;;;;;4.28;1.80;;;;;;;;;;5043329;28;20044;-67
2023/06/09 02:25:45;;;;;;;7.25;1.90;;;;;;;;;;5045678;28;20084;-67
2023/06/09 02:28:12;;;;;;;5.50;1.88;;;;;;;;;;5025854;28;20041;-67
2023/06/09 02:30:38;;;;;;;7.90;2.05;;;;;;;;;;5030991;28;20061;-67
2023/06/09 02:33:05;;;;;;;8.55;1.92;;;;;;;;;;5033453;28;20108;-67
2023/06/09 02:35:32;;;;;;;9.82;2.45;;;;;;;;;;5031677;28;20053;-67
2023/06/09 02:37:58;;;;;;;11.25;2.20;;;;;;;;;;5029959;28;20113;-67
2023/06/09 02:40:27;;;;;;;5.13;1.70;;;;;;;;;;5040304;28;20152;-67
2023/06/09 02:42:53;;;;;;;;;;;;;;;;;;5032074;28;20142;-67
2023/06/09 02:45:21;;;;;;;4.90;1.95;;;;;;;;;;5033154;28;19932;-66
2023/06/09 02:47:48;;;;;;;10.32;2.50;;;;;;;;;;5025202;28;20118;-66
2023/06/09 02:50:15;;;;;;;8.30;2.10;;;;;;;;;;5030910;28;20062;-67
2023/06/09 02:52:42;;;;;;;7.47;2.15;;;;;;;;;;5031002;28;20053;-67
2023/06/09 02:55:08;;;;;;;10.30;2.47;;;;;;;;;;5035396;28;20114;-67
2023/06/09 02:57:35;;;;;;;7.40;1.88;;;;;;;;;;5050930;28;20064;-66
2023/06/09 03:00:03;;;;;;;8.43;2.10;;;;;;;;;;5005216;28;20049;-66
2023/06/09 03:02:32;;;;;;;5.10;1.65;;;;;;;;;;5011373;28;20057;-67
2023/06/09 03:04:59;;;;;;;14.23;2.28;;;;;;;;;;4993948;28;20050;-67
2023/06/09 03:07:25;;;;;;;8.32;1.98;;;;;;;;;;5009728;28;20095;-67
2023/06/09 03:09:52;;;;;;;6.10;1.88;;;;;;;;;;5040711;28;20056;-68
2023/06/09 03:12:18;;;;;;;6.78;2.08;;;;;;;;;;5040029;28;20049;-67
2023/06/09 03:14:45;;;;;;;15.35;2.35;;;;;;;;;;5034647;28;20053;-68
2023/06/09 03:17:11;;;;;;;9.32;2.00;;;;;;;;;;5032358;28;20061;-67
2023/06/09 03:19:39;;;;;;;8.40;2.45;;;;;;;;;;5018130;28;20062;-67
2023/06/09 03:22:06;;;;;;;9.02;2.00;;;;;;;;;;5045231;28;20053;-67
2023/06/09 03:24:33;;;;;;;10.68;2.47;;;;;;;;;;5016745;28;20053;-67
2023/06/09 03:26:59;;;;;;;4.00;1.40;;;;;;;;;;5011468;28;20044;-67
2023/06/09 03:29:28;;;;;;;11.85;2.38;;;;;;;;;;5002838;28;20064;-67
2023/06/09 03:31:54;;;;;;;;;;;;;;;;;;4994854;28;20120;-67
2023/06/09 03:34:22;;;;;;;6.90;1.77;;;;;;;;;;4999358;28;19991;-68
2023/06/09 03:36:50;;;;;;;7.57;1.83;;;;;;;;;;4997491;28;20049;-67
2023/06/09 03:39:17;;;;;;;7.00;1.85;;;;;;;;;;5000761;28;20057;-68
2023/06/09 03:41:44;;;;;;;6.15;1.75;;;;;;;;;;5011393;28;20057;-68
2023/06/09 03:44:11;;;;;;;11.10;2.65;;;;;;;;;;5008212;28;20772;-67
2023/06/09 03:46:38;;;;;;;9.18;2.03;;;;;;;;;;5000470;28;20123;-67
2023/06/09 03:49:04;;;;;;;10.00;2.40;;;;;;;;;;5016004;28;20265;-67
2023/06/09 03:51:31;;;;;;;9.52;2.33;;;;;;;;;;4997890;28;20068;-67
2023/06/09 03:53:59;;;;;;;10.85;2.38;;;;;;;;;;5001808;28;20125;-67
2023/06/09 03:56:25;;;;;;;5.10;1.60;;;;;;;;;;4999951;28;20058;-68
2023/06/09 03:58:53;;;;;;;7.50;2.30;;;;;;;;;;4999055;28;20060;-67
2023/06/09 04:01:21;;;;;;;13.05;2.42;;;;;;;;;;4995780;28;20064;-67
2023/06/09 04:03:47;;;;;;;7.32;2.20;;;;;;;;;;5014730;28;20088;-67
2023/06/09 04:06:14;;;;;;;8.55;2.35;;;;;;;;;;4992799;28;20062;-67
2023/06/09 04:08:44;;;;;;;9.65;2.55;;;;;;;;;;4977594;28;20158;-67
2023/06/09 04:11:12;;;;;;;9.10;2.72;;;;;;;;;;4982475;28;20064;-67
2023/06/09 04:13:38;;;;;;;8.98;2.63;;;;;;;;;;4983723;28;20046;-66
2023/06/09 04:16:05;;;;;;;10.77;2.88;;;;;;;;;;4975931;28;20059;-68
2023/06/09 04:18:32;;;;;;;10.88;2.72;;;;;;;;;;5007554;28;20211;-67
2023/06/09 04:20:58;;;;;;;14.63;2.58;;;;;;;;;;5008321;28;20061;-68
2023/06/09 04:23:27;;;;;;;11.48;2.30;;;;;;;;;;5002984;28;20072;-67
2023/06/09 04:25:53;;;;;;;8.70;2.38;;;;;;;;;;4996815;28;20073;-67
2023/06/09 04:28:21;;;;;;;6.43;2.08;;;;;;;;;;4992021;28;20172;-67
2023/06/09 04:30:49;;;;;;;10.33;2.40;;;;;;;;;;5010179;28;20057;-67
2023/06/09 04:33:15;;;;;;;10.60;2.40;;;;;;;;;;5007149;28;20352;-66
2023/06/09 04:35:43;;;;;;;9.48;2.05;;;;;;;;;;5012663;28;20120;-67
2023/06/09 04:38:09;;;;;;;8.75;2.75;;;;;;;;;;4992905;28;20061;-68
2023/06/09 04:40:37;;;;;;;12.82;2.50;;;;;;;;;;5018145;28;20087;-68
2023/06/09 04:43:07;;;;;;;6.05;2.33;;;;;;;;;;5014046;28;20061;-67
2023/06/09 04:45:35;;;;;;;20.40;8.07;;;;;;;;;;5016875;28;20140;-67
2023/06/09 04:48:01;;;;;;;10.60;2.90;;;;;;;;;;5011827;28;20058;-67
2023/06/09 04:50:30;;;;;;;11.48;3.08;;;;;;;;;;5016532;28;20057;-69
2023/06/09 04:52:57;;;;;;;6.65;2.63;;;;;;;;;;4999724;28;20057;-67
2023/06/09 04:55:26;;;;;;;9.70;2.85;;;;;;;;;;5017359;28;20072;-67
2023/06/09 04:57:55;;;;;;;6.57;2.17;;;;;;;;;;4989390;28;20053;-68
2023/06/09 05:00:21;;;;;;;6.22;2.35;;;;;;;;;;5020824;28;20173;-67
2023/06/09 05:02:49;;;;;;;12.10;2.85;;;;;;;;;;5012271;28;20065;-67
2023/06/09 05:05:16;;;;;;;10.40;2.58;;;;;;;;;;5017356;28;20069;-68
2023/06/09 05:07:44;;;;;;;13.38;2.90;;;;;;;;;;5008078;28;20053;-68
2023/06/09 05:10:11;;;;;;;8.40;2.60;;;;;;;;;;5011538;28;20894;-67
2023/06/09 05:12:41;;;;;;;10.05;2.78;;;;;;;;;;5017568;28;20076;-67
2023/06/09 05:15:08;;;;;;;6.13;2.15;;;;;;;;;;5017345;28;20160;-67
2023/06/09 05:17:36;;;;;;;8.48;3.13;;;;;;;;;;5014538;28;20056;-67
2023/06/09 05:20:06;;;;;;;11.55;3.20;;;;;;;;;;5028748;28;20057;-67
2023/06/09 05:22:33;;;;;;;12.57;2.80;;;;;;;;;;5016260;28;20119;-69
2023/06/09 05:24:59;;;;;;;7.38;2.35;;;;;;;;;;5051652;28;20057;-66
2023/06/09 05:27:25;;;;;;;11.70;3.33;;;;;;;;;;5027727;28;20166;-68
2023/06/09 05:29:55;;;;;;;10.00;2.85;;;;;;;;;;4999711;28;20100;-68
2023/06/09 05:32:21;;;;;;;11.18;2.60;;;;;;;;;;5013317;28;20057;-67
2023/06/09 05:34:48;;;;;;;9.30;2.78;;;;;;;;;;5014789;28;20053;-67
2023/06/09 05:37:16;;;;;;;5.97;2.10;;;;;;;;;;5010073;28;20058;-67
2023/06/09 05:39:42;;;;;;;;;;;;;;;;;;4996715;28;20085;-67
2023/06/09 05:42:12;;;;;;;10.30;2.72;;;;;;;;;;4992964;28;20017;-67
2023/06/09 05:44:38;;;;;;;12.40;3.15;;;;;;;;;;4993095;28;20057;-67
2023/06/09 05:47:05;;;;;;;12.00;3.08;;;;;;;;;;4991416;28;20061;-68
2023/06/09 05:49:32;;;;;;;9.70;2.38;;;;;;;;;;5044015;28;20064;-67
2023/06/09 05:51:58;;;;;;;13.75;3.92;;;;;;;;;;5013057;28;20093;-68
2023/06/09 05:54:27;;;;;;;11.20;3.05;;;;;;;;;;5013209;28;20076;-68
2023/06/09 05:56:53;;;;;;;;;;;;;;;;;;5011080;28;20120;-67
2023/06/09 05:59:20;;;;;;;10.60;3.03;;;;;;;;;;5002259;28;19987;-67
2023/06/09 06:01:48;;;;;;;11.55;3.50;;;;;;;;;;4997346;28;20057;-67
2023/06/09 06:04:16;;;;;;;7.45;2.33;;;;;;;;;;4998864;28;20057;-67
2023/06/09 06:06:42;;;;;;;12.37;3.73;;;;;;;;;;5000864;28;20049;-69
2023/06/09 06:09:09;;;;;;;11.00;3.88;;;;;;;;;;4989522;28;20156;-70
2023/06/09 06:11:37;;;;;;;13.13;3.28;;;;;;;;;;4998023;28;20297;-67
2023/06/09 06:14:03;;;;;;;16.65;3.42;;;;;;;;;;4993811;28;20132;-67
2023/06/09 06:16:39;;;;;;;13.88;3.60;;;;;;;;;;4995101;28;20155;-67
2023/06/09 06:19:05;;;;;;;11.82;3.70;;;;;;;;;;4990613;28;20156;-67
2023/06/09 06:21:32;;;;;;;12.00;3.28;;;;;;;;;;4999042;28;20050;-67
2023/06/09 06:23:59;;;;;;;5.97;2.38;;;;;;;;;;5006297;28;20068;-67
2023/06/09 06:26:26;;;;;;;12.35;2.97;;;;;;;;;;4993785;28;20159;-67
2023/06/09 06:28:57;;;;;;;11.32;3.15;;;;;;;;;;5033339;28;20080;-67
2023/06/09 06:31:23;;;;;;;9.05;2.92;;;;;;;;;;5009642;28;20077;-67
2023/06/09 06:33:50;;;;;;;9.82;3.20;;;;;;;;;;5012403;28;20068;-67
2023/06/09 06:36:21;;;;;;;10.27;3.55;;;;;;;;;;5023592;28;20073;-67
2023/06/09 06:38:50;;;;;;;9.23;3.42;;;;;;;;;;5032690;28;20065;-67
2023/06/09 06:41:16;;;;;;;10.27;3.50;;;;;;;;;;5017051;28;20072;-67
2023/06/09 06:43:43;;;;;;;10.07;3.15;;;;;;;;;;5014538;28;20061;-67
2023/06/09 06:46:11;;;;;;;9.15;2.47;;;;;;;;;;5040559;28;20111;-66
2023/06/09 06:48:38;;;;;;;13.77;3.33;;;;;;;;;;5000424;28;20054;-67
2023/06/09 06:51:06;;;;;;;10.88;3.10;;;;;;;;;;5027119;28;20149;-66
2023/06/09 06:53:33;;;;;;;13.93;2.95;;;;;;;;;;5031528;28;20103;-67
2023/06/09 06:55:59;;;;;;;10.18;2.78;;;;;;;;;;4991905;28;20057;-67
2023/06/09 06:58:28;;;;;;;6.60;2.25;;;;;;;;;;4991883;28;20061;-67
2023/06/09 07:00:55;;;;;;;5.63;2.47;;;;;;;;;;5000382;28;20069;-70
2023/06/09 07:03:23;;;;;;;11.77;3.20;;;;;;;;;;4999927;28;20084;-67
2023/06/09 07:05:52;;;;;;;9.98;3.20;;;;;;;;;;5000162;28;20042;-67
2023/06/09 07:08:19;;;;;;;13.80;3.90;;;;;;;;;;5012310;28;20050;-67
2023/06/09 07:10:47;;;;;;;8.38;2.47;;;;;;;;;;5044327;28;20052;-68
2023/06/09 07:13:14;;;;;;;11.15;3.97;;;;;;;;;;5019980;28;20107;-67
2023/06/09 07:15:43;;;;;;;10.07;3.45;;;;;;;;;;5019810;28;20138;-67
2023/06/09 07:18:12;;;;;;;11.05;3.40;;;;;;;;;;5021742;28;20045;-67
2023/06/09 07:20:43;;;;;;;14.05;3.47;;;;;;;;;;5020252;28;20067;-67
2023/06/09 07:23:11;;;;;;;7.93;2.75;;;;;;;;;;5018690;28;20136;-67
2023/06/09 07:25:38;;;;;;;9.60;3.63;;;;;;;;;;5019688;28;20057;-67
2023/06/09 07:28:05;;;;;;;10.23;2.78;;;;;;;;;;4981343;28;20297;-66
2023/06/09 07:30:31;;;;;;;12.82;3.50;;;;;;;;;;5010754;28;20057;-67
2023/06/09 07:32:58;;;;;;;13.95;3.70;;;;;;;;;;5012800;28;20057;-67
2023/06/09 07:35:26;;;;;;;13.60;3.33;;;;;;;;;;5020336;28;20057;-67
2023/06/09 07:38:02;;;;;;;8.77;2.87;;;;;;;;;;5008128;28;20127;-68
2023/06/09 07:40:28;;;;;;;8.27;3.22;;;;;;;;;;5036008;28;20077;-67
2023/06/09 07:42:56;;;;;;;7.03;2.88;;;;;;;;;;5016595;28;20065;-67
2023/06/09 07:45:25;;;;;;;8.30;3.05;;;;;;;;;;5021198;28;20081;-67
2023/06/09 07:47:52;;;;;;;6.57;2.95;;;;;;;;;;5001936;28;20124;-67
2023/06/09 07:50:18;;;;;;;14.10;3.85;;;;;;;;;;5017132;28;20170;-67
2023/06/09 07:52:45;;;;;;;8.65;3.00;;;;;;;;;;5019130;28;20061;-67
2023/06/09 07:55:13;;;;;;;10.60;3.03;;;;;;;;;;5016108;28;20118;-67
2023/06/09 07:57:40;;;;;;;11.13;3.58;;;;;;;;;;5000927;28;20153;-69
2023/06/09 08:00:09;;;;;;;9.73;3.15;;;;;;;;;;5033087;28;20120;-69
2023/06/09 08:02:41;;;;;;;6.38;2.80;;;;;;;;;;5017844;28;20086;-66
2023/06/09 08:05:08;;;;;;;7.40;2.85;;;;;;;;;;5015636;28;20060;-67
2023/06/09 08:07:34;;;;;;;10.98;3.83;;;;;;;;;;5014799;28;20056;-69
2023/06/09 08:10:01;;;;;;;11.45;3.08;;;;;;;;;;5011885;28;20332;-69
2023/06/09 08:12:29;;;;;;;10.18;2.67;;;;;;;;;;5009363;28;20070;-71
2023/06/09 08:14:55;;;;;;;7.80;3.60;;;;;;;;;;5001620;28;20103;-69
2023/06/09 08:17:21;;;;;;;10.77;3.70;;;;;;;;;;5017590;28;20121;-68
2023/06/09 08:19:48;;;;;;;8.63;3.38;;;;;;;;;;5008713;28;20064;-68
2023/06/09 08:22:14;;;;;;;6.35;2.75;;;;;;;;;;5018229;28;20108;-68
2023/06/09 08:24:43;;;;;;;9.90;3.42;;;;;;;;;;5045847;28;20125;-70
2023/06/09 08:27:09;;;;;;;;;;;;;;;;;;5019658;28;20057;-69
2023/06/09 08:29:37;;;;;;;7.25;3.28;;;;;;;;;;5012472;28;19964;-69
2023/06/09 08:32:04;;;;;;;9.77;3.65;;;;;;;;;;5011793;28;20139;-67
2023/06/09 08:34:30;;;;;;;8.07;2.92;;;;;;;;;;5002113;28;20125;-69
2023/06/09 08:36:57;;;;;;;9.65;4.80;;;;;;;;;;4997899;28;20061;-67
2023/06/09 08:39:24;;;;;;;8.30;3.08;;;;;;;;;;5012877;28;20045;-67
2023/06/09 08:41:53;;;;;;;12.32;3.38;;;;;;;;;;5008338;28;20159;-67
2023/06/09 08:44:20;;;;;;;6.18;2.88;;;;;;;;;;5019656;28;20140;-69
2023/06/09 08:46:49;;;;;;;12.35;3.35;;;;;;;;;;5014625;28;20068;-67
2023/06/09 08:49:16;;;;;;;12.07;3.83;;;;;;;;;;5015889;28;20115;-67
2023/06/09 08:51:46;;;;;;;11.75;4.35;;;;;;;;;;5019575;28;20045;-69
2023/06/09 08:54:13;;;;;;;12.52;4.30;;;;;;;;;;5013204;28;20057;-67
2023/06/09 08:56:40;;;;;;;12.52;6.15;;;;;;;;;;5017039;28;20058;-68
2023/06/09 08:59:06;;;;;;;13.50;4.63;;;;;;;;;;5016683;28;20053;-69
2023/06/09 09:01:35;;;;;;;7.45;3.00;;;;;;;;;;5015919;28;20053;-68
2023/06/09 09:04:03;;;;;;;9.18;3.40;;;;;;;;;;5011809;28;20107;-69
2023/06/09 09:06:31;;;;;;;17.85;4.28;;;;;;;;;;5017404;28;20149;-70
2023/06/09 09:08:58;;;;;;;7.15;3.70;;;;;;;;;;5015354;28;20048;-67
2023/06/09 09:11:25;;;;;;;10.52;4.50;;;;;;;;;;5017406;28;20052;-67
2023/06/09 09:13:52;;;;;;;8.38;3.97;;;;;;;;;;5011705;28;20121;-66
2023/06/09 09:16:19;;;;;;;11.43;3.45;;;;;;;;;;5026915;28;20144;-67
2023/06/09 09:18:46;;;;;;;9.57;4.90;;;;;;;;;;5032821;28;20052;-67
2023/06/09 09:21:22;;;;;;;14.80;4.90;;;;;;;;;;5021634;28;20065;-68
2023/06/09 09:23:55;;;;;;;10.32;3.72;;;;;;;;;;5030358;28;20141;-68
2023/06/09 09:26:26;;;;;;;7.75;2.83;;;;;;;;;;5020420;28;20263;-67
2023/06/09 09:28:55;;;;;;;15.35;6.50;;;;;;;;;;5007459;28;20075;-66
2023/06/09 09:31:31;;;;;;;11.00;3.30;;;;;;;;;;5036700;28;20053;-70
2023/06/09 09:33:57;;;;;;;12.40;5.85;;;;;;;;;;5026072;28;20136;-66
2023/06/09 09:36:26;;;;;;;9.98;4.30;;;;;;;;;;5039560;28;20059;-65
2023/06/09 09:38:55;;;;;;;8.07;3.67;;;;;;;;;;5030414;28;20135;-66
2023/06/09 09:41:21;;;;;;;11.43;4.10;;;;;;;;;;5039341;28;20127;-68
2023/06/09 09:43:48;;;;;;;11.95;3.92;;;;;;;;;;5010882;28;20143;-66
2023/06/09 09:46:20;;;;;;;7.70;3.75;;;;;;;;;;5020258;28;20053;-66
2023/06/09 09:48:47;;;;;;;11.85;4.15;;;;;;;;;;5030491;28;20068;-66
2023/06/09 09:51:14;;;;;;;12.45;3.70;;;;;;;;;;5038395;28;20080;-69
2023/06/09 09:53:44;;;;;;;10.00;3.88;;;;;;;;;;5032909;28;20084;-69
2023/06/09 09:56:11;;;;;;;13.48;3.67;;;;;;;;;;5020421;28;20131;-68
2023/06/09 09:58:38;;;;;;;14.18;3.78;;;;;;;;;;5016237;28;20135;-67
2023/06/09 10:01:05;;;;;;;9.20;4.45;;;;;;;;;;5018625;28;20086;-66
2023/06/09 10:03:32;;;;;;;19.40;8.68;;;;;;;;;;5017139;28;20061;-66
2023/06/09 10:06:01;;;;;;;8.77;4.18;;;;;;;;;;5028029;28;20056;-66
2023/06/09 10:08:29;;;;;;;12.25;4.50;;;;;;;;;;5006919;28;20057;-68
2023/06/09 10:10:59;;;;;;;10.65;4.03;;;;;;;;;;5019603;28;20053;-67
2023/06/09 10:13:27;;;;;;;13.77;4.15;;;;;;;;;;5019609;28;20067;-67
2023/06/09 10:15:53;;;;;;;13.70;4.27;;;;;;;;;;5025532;28;20140;-70
2023/06/09 10:18:20;;;;;;;8.10;3.70;;;;;;;;;;5017054;28;20064;-71
2023/06/09 10:20:48;;;;;;;11.52;3.40;;;;;;;;;;5032596;28;20060;-69
2023/06/09 10:23:17;;;;;;;11.57;4.03;;;;;;;;;;5018406;28;20053;-70
2023/06/09 10:25:48;;;;;;;15.60;4.70;;;;;;;;;;5026402;28;20073;-67
2023/06/09 10:28:16;;;;;;;9.70;3.17;;;;;;;;;;5034172;28;20111;-68
2023/06/09 10:30:45;;;;;;;21.17;12.55;;;;;;;;;;5037096;28;20060;-67
2023/06/09 10:33:14;;;;;;;7.97;3.47;;;;;;;;;;5041443;28;20142;-66
2023/06/09 10:35:43;;;;;;;6.72;3.17;;;;;;;;;;5045989;28;20100;-66
2023/06/09 10:38:30;;;;;;;9.77;3.03;;;;;;;;;;5023483;28;20059;-65
2023/06/09 10:41:10;;;;;;;7.45;3.20;;;;;;;;;;5038910;28;20045;-67
2023/06/09 10:43:58;;;;;;;9.25;3.60;;;;;;;;;;5023355;28;20064;-68
2023/06/09 10:46:42;;;;;;;11.05;3.47;;;;;;;;;;5015248;28;20164;-70
2023/06/09 10:49:36;;;;;;;9.13;3.25;;;;;;;;;;5039899;28;20136;-66
2023/06/09 10:52:02;;;;;;;6.40;2.90;;;;;;;;;;5012499;28;20072;-65
2023/06/09 10:54:30;;;;;;;7.05;3.15;;;;;;;;;;5040226;28;20061;-67
2023/06/09 10:56:57;;;;;;;11.75;3.78;;;;;;;;;;5020882;28;20057;-67
2023/06/09 10:59:42;;;;;;;10.20;3.17;;;;;;;;;;5037794;28;20088;-67
2023/06/09 11:02:22;;;;;;;8.25;3.47;;;;;;;;;;5014751;28;22084;-66
2023/06/09 11:04:49;;;;;;;8.57;3.60;;;;;;;;;;5022831;28;20142;-68
2023/06/09 11:07:16;;;;;;;16.90;4.38;;;;;;;;;;5015956;28;20056;-67
2023/06/09 11:10:03;;;;;;;11.50;3.57;;;;;;;;;;5038661;28;20311;-67
2023/06/09 11:12:30;;;;;;;7.40;4.13;;;;;;;;;;5048843;28;20310;-69
2023/06/09 11:14:57;;;;;;;5.73;2.60;;;;;;;;;;5041963;28;20121;-68
2023/06/09 11:17:27;;;;;;;9.30;3.17;;;;;;;;;;5042975;28;20311;-67
2023/06/09 11:20:11;;;;;;;8.30;2.83;;;;;;;;;;5036024;28;20052;-69
2023/06/09 11:22:58;;;;;;;5.28;2.60;;;;;;;;;;5021175;28;20065;-66
2023/06/09 11:25:38;;;;;;;9.10;3.33;;;;;;;;;;5040747;28;20065;-67
2023/06/09 11:28:18;;;;;;;5.38;3.03;;;;;;;;;;4983964;28;20369;-68
2023/06/09 11:31:00;;;;;;;7.15;3.40;;;;;;;;;;5046640;28;20084;-66
2023/06/09 11:33:55;;;;;;;8.90;3.00;;;;;;;;;;5031360;28;20063;-69
2023/06/09 11:36:27;;;;;;;6.47;2.95;;;;;;;;;;5003574;28;20221;-67
2023/06/09 11:38:59;;;;;;;7.57;3.60;;;;;;;;;;5015041;28;20163;-67
2023/06/09 11:41:29;;;;;;;8.35;3.40;;;;;;;;;;5021633;28;20148;-69
2023/06/09 11:43:56;;;;;;;7.13;3.17;;;;;;;;;;5020301;28;20084;-70
2023/06/09 11:46:23;;;;;;;;;;;;;;;;;;5038036;28;20064;-69
2023/06/09 11:48:59;;;;;;;8.13;3.22;;;;;;;;;;5004580;28;19936;-69
2023/06/09 11:51:29;;;;;;;6.85;2.92;;;;;;;;;;5038424;28;20115;-68
2023/06/09 11:53:56;;;;;;;6.95;3.30;;;;;;;;;;5027186;28;20063;-68
2023/06/09 11:56:23;;;;;;;4.93;3.00;;;;;;;;;;5020543;28;20057;-69
2023/06/09 11:58:53;;;;;;;8.18;3.70;;;;;;;;;;5014791;28;20057;-68
2023/06/09 12:01:23;;;;;;;6.38;3.05;;;;;;;;;;5043461;28;20103;-69
2023/06/09 12:03:49;;;;;;;6.65;3.47;;;;;;;;;;5028707;28;20057;-70
2023/06/09 12:06:17;;;;;;;7.15;3.15;;;;;;;;;;5019416;28;20053;-69
2023/06/09 12:08:46;;;;;;;6.82;3.60;;;;;;;;;;5004113;28;20077;-70
2023/06/09 12:11:16;;;;;;;5.50;2.85;;;;;;;;;;5021367;28;20057;-70
2023/06/09 12:13:46;;;;;;;5.82;3.10;;;;;;;;;;4999570;28;20057;-73
2023/06/09 12:16:13;;;;;;;8.30;3.28;;;;;;;;;;5016423;28;20116;-70
2023/06/09 12:18:39;;;;;;;5.97;2.97;;;;;;;;;;5021915;28;20056;-68
2023/06/09 12:21:06;;;;;;;10.63;2.88;;;;;;;;;;5001142;28;20057;-69
2023/06/09 12:23:33;;;;;;;6.47;3.27;;;;;;;;;;5033707;28;20069;-70
2023/06/09 12:26:09;;;;;;;5.95;3.15;;;;;;;;;;5007826;28;20143;-71
2023/06/09 12:28:36;;;;;;;7.28;2.95;;;;;;;;;;5008718;28;20057;-69
2023/06/09 12:31:09;;;;;;;9.55;2.90;;;;;;;;;;5016531;28;20057;-70
2023/06/09 12:33:36;;;;;;;5.47;3.20;;;;;;;;;;5011473;28;20055;-71
2023/06/09 12:36:05;;;;;;;4.63;2.60;;;;;;;;;;4992152;28;20239;-71
2023/06/09 12:38:36;;;;;;;8.23;3.05;;;;;;;;;;5013832;28;20057;-72
2023/06/09 12:41:06;;;;;;;6.10;3.30;;;;;;;;;;5013946;28;20068;-69
2023/06/09 12:43:48;;;;;;;6.57;3.20;;;;;;;;;;5035400;28;20075;-73
2023/06/09 12:46:18;;;;;;;7.72;2.90;;;;;;;;;;4998835;28;20073;-72
2023/06/09 12:48:55;;;;;;;6.28;3.15;;;;;;;;;;5027063;28;20049;-75
2023/06/09 12:51:21;;;;;;;5.07;2.60;;;;;;;;;;5001101;28;20073;-71
2023/06/09 12:53:49;;;;;;;7.00;3.10;;;;;;;;;;5040047;28;20144;-70
2023/06/09 12:56:16;;;;;;;8.23;2.60;;;;;;;;;;5003166;28;20053;-70
2023/06/09 12:58:45;;;;;;;5.63;3.30;;;;;;;;;;5015699;28;20086;-69
2023/06/09 13:01:14;;;;;;;4.18;2.70;;;;;;;;;;5024094;28;20119;-69
2023/06/09 13:03:41;;;;;;;5.88;2.97;;;;;;;;;;5036132;28;20175;-67
2023/06/09 13:06:10;;;;;;;5.53;2.80;;;;;;;;;;5020654;28;20072;-71
2023/06/09 13:08:40;;;;;;;5.38;2.58;;;;;;;;;;5067607;28;20054;-68
2023/06/09 13:11:06;;;;;;;6.40;2.90;;;;;;;;;;5068998;28;20131;-69
2023/06/09 13:13:34;;;;;;;5.13;2.58;;;;;;;;;;5058207;28;20154;-67
2023/06/09 13:16:00;;;;;;;;;;;;;;;;;;5048896;28;20137;-70
2023/06/09 13:18:27;;;;;;;5.20;2.55;;;;;;;;;;5036006;28;19932;-68
2023/06/09 13:20:53;;;;;;;5.82;2.90;;;;;;;;;;5055882;28;20056;-68
2023/06/09 13:23:20;;;;;;;7.03;3.40;;;;;;;;;;5056867;28;20083;-67
2023/06/09 13:25:47;;;;;;;5.93;2.55;;;;;;;;;;5052318;27;20071;-70
2023/06/09 13:28:15;;;;;;;6.38;3.05;;;;;;;;;;5042791;28;20047;-65
2023/06/09 13:30:47;;;;;;;4.85;2.63;;;;;;;;;;5074845;28;20064;-68
2023/06/09 13:33:16;;;;;;;6.43;3.25;;;;;;;;;;5074280;28;20051;-71
2023/06/09 13:35:42;;;;;;;6.45;3.08;;;;;;;;;;5056088;28;20168;-70
2023/06/09 13:38:12;;;;;;;12.48;3.10;;;;;;;;;;5059468;28;20059;-70
2023/06/09 13:40:43;;;;;;;11.38;2.95;;;;;;;;;;5068926;28;20065;-68
2023/06/09 13:43:11;;;;;;;7.78;2.83;;;;;;;;;;5063689;28;20146;-71
2023/06/09 13:45:38;;;;;;;9.10;3.15;;;;;;;;;;5076749;28;20078;-69
2023/06/09 13:48:06;;;;;;;6.50;2.88;;;;;;;;;;5055634;28;20064;-66
2023/06/09 13:50:33;;;;;;;5.63;2.78;;;;;;;;;;5057375;28;20056;-68
2023/06/09 13:53:00;;;;;;;6.40;3.20;;;;;;;;;;5048064;28;20052;-69
2023/06/09 13:55:26;;;;;;;4.00;2.38;;;;;;;;;;5056447;28;20147;-69
2023/06/09 13:57:53;;;;;;;6.13;3.15;;;;;;;;;;5026174;28;20052;-69
2023/06/09 14:00:20;;;;;;;4.72;2.78;;;;;;;;;;5048461;28;20064;-69
2023/06/09 14:02:46;;;;;;;5.35;3.00;;;;;;;;;;5054467;28;20131;-68
2023/06/09 14:05:14;;;;;;;6.22;2.78;;;;;;;;;;5057836;28;20075;-69
2023/06/09 14:07:42;;;;;;;;;;;;;;;;;;5070835;28;20076;-67
2023/06/09 14:10:09;;;;;;;7.05;3.22;;;;;;;;;;5039180;28;19924;-67
2023/06/09 14:12:37;;;;;;;8.30;3.00;;;;;;;;;;5058042;28;20060;-65
2023/06/09 14:15:04;;;;;;;5.53;2.45;;;;;;;;;;5054210;28;20130;-69
2023/06/09 14:17:30;;;;;;;4.88;2.70;;;;;;;;;;5073890;28;20044;-65
2023/06/09 14:19:57;;;;;;;7.13;3.53;;;;;;;;;;5053906;28;20151;-68
2023/06/09 14:22:24;;;;;;;4.78;2.80;;;;;;;;;;5058088;28;20088;-67
2023/06/09 14:24:50;;;;;;;;;;;;;;;;;;5054360;28;20068;-66
2023/06/09 14:27:18;;;;;;;5.70;3.50;;;;;;;;;;5048991;28;19931;-69
2023/06/09 14:29:44;;;;;;;6.88;2.85;;;;;;;;;;5040432;28;20053;-69
2023/06/09 14:32:11;;;;;;;5.35;2.63;;;;;;;;;;5056217;28;20052;-68
2023/06/09 14:34:37;;;;;;;4.80;2.58;;;;;;;;;;5053704;28;20060;-68
2023/06/09 14:37:04;;;;;;;5.18;2.80;;;;;;;;;;5062169;28;20135;-68
2023/06/09 14:39:32;;;;;;;6.47;3.35;;;;;;;;;;5050627;28;20060;-70
2023/06/09 14:41:58;;;;;;;8.75;2.72;;;;;;;;;;5047339;28;20106;-69
2023/06/09 14:44:25;;;;;;;7.93;2.72;;;;;;;;;;5070124;28;20079;-68
2023/06/09 14:46:51;;;;;;;8.23;3.15;;;;;;;;;;5077140;28;20048;-69
2023/06/09 14:49:19;;;;;;;10.40;3.17;;;;;;;;;;5054158;28;20056;-69
2023/06/09 14:51:48;;;;;;;5.53;2.72;;;;;;;;;;5057540;28;20091;-68
2023/06/09 14:54:15;;;;;;;5.18;2.65;;;;;;;;;;5055666;28;20063;-68
2023/06/09 14:56:43;;;;;;;5.28;3.00;;;;;;;;;;5053718;28;20131;-69
2023/06/09 14:59:09;;;;;;;5.72;2.78;;;;;;;;;;5056257;28;20055;-69
2023/06/09 15:01:36;;;;;;;6.55;3.20;;;;;;;;;;5057145;28;20116;-66
2023/06/09 15:04:02;;;;;;;5.70;2.80;;;;;;;;;;5066468;28;20149;-69
2023/06/09 15:06:29;;;;;;;5.07;2.80;;;;;;;;;;5052796;28;20132;-66
2023/06/09 15:08:55;;;;;;;5.15;2.90;;;;;;;;;;5063075;28;20055;-67
2023/06/09 15:11:22;;;;;;;5.63;3.13;;;;;;;;;;5076693;28;20301;-68
2023/06/09 15:13:50;;;;;;;6.60;2.70;;;;;;;;;;5041098;28;20068;-66
2023/06/09 15:16:19;;;;;;;6.47;3.33;;;;;;;;;;5063060;28;20136;-68
2023/06/09 15:18:45;;;;;;;4.68;2.83;;;;;;;;;;5059951;28;20060;-68
2023/06/09 15:21:12;;;;;;;6.72;3.00;;;;;;;;;;5072087;28;20088;-69
2023/06/09 15:23:38;;;;;;;6.05;3.03;;;;;;;;;;5062800;28;20110;-67
2023/06/09 15:26:04;;;;;;;7.93;2.53;;;;;;;;;;5056071;28;20477;-68
2023/06/09 15:28:31;;;;;;;8.48;3.28;;;;;;;;;;5059744;28;20052;-69
2023/06/09 15:30:59;;;;;;;12.00;3.65;;;;;;;;;;5060052;28;20112;-68
2023/06/09 15:33:26;;;;;;;9.00;3.20;;;;;;;;;;5063987;28;20056;-69
2023/06/09 15:35:54;;;;;;;11.05;7.15;;;;;;;;;;5074330;28;20143;-69
2023/06/09 15:38:23;;;;;;;29.55;19.10;;;;;;;;;;5047573;28;20052;-67
2023/06/09 15:40:50;;;;;;;6.05;3.67;;;;;;;;;;5048318;28;20109;-68
2023/06/09 15:43:17;;;;;;;6.20;3.33;;;;;;;;;;5060961;28;20078;-67
2023/06/09 15:45:45;;;;;;;6.28;3.30;;;;;;;;;;5074268;28;20076;-69
2023/06/09 15:48:14;;;;;;;6.55;3.13;;;;;;;;;;5055071;28;20049;-67
2023/06/09 15:50:42;;;;;;;5.18;2.95;;;;;;;;;;5062992;28;20057;-68
2023/06/09 15:53:10;;;;;;;4.63;2.80;;;;;;;;;;5058499;28;20122;-70
2023/06/09 15:55:37;;;;;;;4.55;2.78;;;;;;;;;;5060960;28;20060;-67
2023/06/09 15:58:04;;;;;;;7.32;3.10;;;;;;;;;;5039876;28;20045;-68
2023/06/09 16:00:31;;;;;;;6.05;2.90;;;;;;;;;;5069096;28;20053;-72
2023/06/09 16:02:57;;;;;;;10.80;3.10;;;;;;;;;;5056168;28;20093;-70
2023/06/09 16:05:25;;;;;;;6.00;3.07;;;;;;;;;;5063176;28;20083;-68
2023/06/09 16:07:52;;;;;;;;;;;;;;;;;;5055605;28;20230;-67
2023/06/09 16:10:18;;;;;;;5.07;3.03;;;;;;;;;;5052268;28;19932;-72
2023/06/09 16:12:45;;;;;;;5.70;2.95;;;;;;;;;;5058063;28;20440;-69
2023/06/09 16:15:18;;;;;;;6.65;3.30;;;;;;;;;;5063118;28;20147;-68
2023/06/09 16:17:51;;;;;;;8.30;3.42;;;;;;;;;;5038821;28;20059;-69
2023/06/09 16:20:18;;;;;;;7.03;3.33;;;;;;;;;;5046847;28;20060;-70
2023/06/09 16:22:46;;;;;;;4.68;2.60;;;;;;;;;;5062246;28;20053;-68
2023/06/09 16:25:16;;;;;;;;;;;;;;;;;;5058464;28;20052;-68
2023/06/09 16:27:44;;;;;;;5.22;2.67;;;;;;;;;;5076424;28;19942;-68
2023/06/09 16:30:10;;;;;;;;;;;;;;;;;;5053942;28;20061;-70
2023/06/09 16:32:37;;;;;;;6.82;2.90;;;;;;;;;;5043612;28;19924;-68
2023/06/09 16:35:12;;;;;;;6.82;3.22;;;;;;;;;;5058921;28;20095;-68
2023/06/09 16:37:38;;;;;;;12.90;3.85;;;;;;;;;;5063195;28;20060;-68
2023/06/09 16:40:10;;;;;;;6.57;2.95;;;;;;;;;;5042156;28;20057;-68
2023/06/09 16:42:37;;;;;;;8.35;2.85;;;;;;;;;;5049301;28;20148;-68
2023/06/09 16:45:11;;;;;;;8.57;3.45;;;;;;;;;;5056168;28;20060;-68
2023/06/09 16:47:37;;;;;;;8.35;3.53;;;;;;;;;;5063515;28;20063;-69
2023/06/09 16:50:11;;;;;;;8.05;3.45;;;;;;;;;;5054204;28;20058;-72
2023/06/09 16:52:38;;;;;;;5.72;2.95;;;;;;;;;;5063972;28;20171;-69
2023/06/09 16:55:06;;;;;;;5.95;3.53;;;;;;;;;;5057441;28;20071;-70
2023/06/09 16:57:33;;;;;;;8.50;3.20;;;;;;;;;;5060694;28;20048;-69